Terminal Aerodrome Forecast
Issued by NWS Sterling, VA

Current Version | Previous Version | Graphics & Text | Print | Product List | Glossary On
Versions: 1 2 3 4 5 6 7 8 9 10 11 12 13 14 15 16 17
463
FTUS41 KLWX 150919 AAC
TAFMRB
TAF AMD
KMRB 150919Z 1509/1606 21004KT 1SM BR OVC002
     FM151200 19004KT 4SM BR SKC
     FM151500 20008KT P6SM SKC
     FM152300 21009KT P6SM BKN090
     FM160200 27009KT P6SM OVC060=

USA.gov is the U.S. government's official web portal to all federal, state and local government web resources and services.